Time;durP1;ratioP1;P1;durP2;ratioP2;P2;SDS_P1;SDS_P2;PMS_P1;PMS_P2;Temp;Humidity;BMP_temperature;BMP_pressure;BME280_temperature;BME280_humidity;BME280_pressure;Samples;Min_cycle;Max_cycle;Signal;HPM_P1;HPM_P2
2023/05/07 00:01:06;;;;;;;4.27;3.63;;;;;;;12.40;84.61;64249.66;5051323;28;20706;-54
2023/05/07 00:03:32;;;;;;;5.40;3.47;;;;;;;12.33;85.81;64247.56;5051055;28;20205;-57
2023/05/07 00:05:57;;;;;;;3.60;3.13;;;;;;;12.39;85.82;64251.63;5051408;28;20585;-54
2023/05/07 00:08:22;;;;;;;3.60;2.97;;;;;;;12.38;85.57;64250.53;5051171;28;20209;-58
2023/05/07 00:10:48;;;;;;;4.40;3.27;;;;;;;12.33;85.69;64244.50;5051104;28;20220;-55
2023/05/07 00:13:13;;;;;;;5.83;4.03;;;;;;;12.07;87.05;64216.00;5051202;28;20695;-55
2023/05/07 00:15:39;;;;;;;6.80;4.77;;;;;;;11.99;88.26;64209.75;5051138;28;20186;-56
2023/05/07 00:18:04;;;;;;;5.15;4.10;;;;;;;12.02;88.93;64208.00;5051171;28;20201;-56
2023/05/07 00:20:30;;;;;;;6.90;4.97;;;;;;;11.98;89.89;64208.66;5051214;28;20182;-56
2023/05/07 00:22:55;;;;;;;10.45;5.00;;;;;;;12.01;90.48;64209.97;5051061;28;20261;-55
2023/05/07 00:25:20;;;;;;;5.73;4.50;;;;;;;12.37;87.94;64248.88;5033158;28;20189;-58
2023/05/07 00:27:46;;;;;;;9.00;5.00;;;;;;;12.39;87.98;64253.59;5050872;28;20220;-55
2023/05/07 00:30:12;;;;;;;7.30;4.53;;;;;;;12.39;88.96;64253.59;5050913;28;20205;-58
2023/05/07 00:32:38;;;;;;;7.13;5.03;;;;;;;12.13;90.85;64225.09;5050697;28;20200;-57
2023/05/07 00:35:04;;;;;;;9.37;5.40;;;;;;;12.05;91.36;64214.34;5050714;28;20582;-55
2023/05/07 00:37:30;;;;;;;7.03;4.43;;;;;;;12.23;90.33;64231.00;5050993;28;20189;-57
2023/05/07 00:39:56;;;;;;;7.17;4.83;;;;;;;12.05;91.40;64214.34;5051035;28;20224;-58
2023/05/07 00:42:21;;;;;;;7.57;4.30;;;;;;;12.14;91.51;64223.66;5050712;28;20276;-56
2023/05/07 00:44:47;;;;;;;6.57;4.13;;;;;;;12.06;90.92;64212.91;5050934;28;20296;-55
2023/05/07 00:47:13;;;;;;;4.77;3.70;;;;;;;11.79;91.92;64183.88;5050658;28;20610;-56
2023/05/07 00:49:43;;;;;;;6.63;3.40;;;;;;;11.84;90.71;64191.31;5050773;28;20688;-55
2023/05/07 00:52:13;;;;;;;5.80;3.23;;;;;;;11.65;91.29;64173.00;5050089;28;20209;-56
2023/05/07 00:54:39;;;;;;;9.97;4.30;;;;;;;11.65;90.38;64173.00;5050105;28;20294;-57
2023/05/07 00:57:06;;;;;;;4.67;3.53;;;;;;;11.39;90.79;64144.53;5032817;28;20190;-57
2023/05/07 00:59:32;;;;;;;7.03;3.47;;;;;;;11.22;91.07;64123.94;5050373;28;20205;-58
2023/05/07 01:01:59;;;;;;;7.30;3.13;;;;;;;11.12;91.57;64114.94;5032637;28;20192;-54
2023/05/07 01:04:24;;;;;;;4.60;3.10;;;;;;;11.08;92.22;64105.53;5050656;28;20213;-55
2023/05/07 01:06:51;;;;;;;5.07;3.60;;;;;;;11.10;92.51;64110.22;5050274;28;20197;-57
2023/05/07 01:09:18;;;;;;;4.73;3.63;;;;;;;11.08;93.15;64105.53;5050404;28;20271;-55
2023/05/07 01:11:44;;;;;;;5.20;3.23;;;;;;;10.95;93.83;64097.44;5050434;28;20655;-55
2023/05/07 01:14:10;;;;;;;4.30;3.63;;;;;;;10.98;94.96;64100.72;5050409;28;20206;-55
2023/05/07 01:16:36;;;;;;;3.30;3.00;;;;;;;11.01;94.01;64102.91;5050348;28;20185;-57
2023/05/07 01:19:02;;;;;;;7.50;3.47;;;;;;;11.03;93.94;64100.06;5050225;28;20216;-58
2023/05/07 01:21:34;;;;;;;5.40;3.17;;;;;;;10.99;94.21;64096.75;5050228;28;20201;-58
2023/05/07 01:23:59;;;;;;;3.97;2.93;;;;;;;10.98;94.59;64100.16;5050444;28;20205;-56
2023/05/07 01:26:25;;;;;;;5.77;3.50;;;;;;;11.07;95.17;64107.50;5050010;28;20190;-56
2023/05/07 01:28:50;;;;;;;4.87;4.23;;;;;;;10.96;94.46;64097.97;5049945;28;20259;-55
2023/05/07 01:31:17;;;;;;;3.37;3.07;;;;;;;11.00;94.89;64102.34;5050286;28;20196;-57
2023/05/07 01:33:45;;;;;;;7.80;4.07;;;;;;;10.85;95.59;64081.44;5050101;28;20220;-55
2023/05/07 01:36:11;;;;;;;3.73;3.33;;;;;;;10.81;96.46;64079.03;5050054;28;20297;-56
2023/05/07 01:38:38;;;;;;;4.67;4.00;;;;;;;10.88;96.35;64086.69;5050168;28;20217;-61
2023/05/07 01:41:04;;;;;;;5.07;3.80;;;;;;;10.91;96.31;64090.53;5049994;28;20220;-57
2023/05/07 01:43:30;;;;;;;3.87;3.43;;;;;;;11.06;96.20;64106.41;5032305;28;20687;-58
2023/05/07 01:45:57;;;;;;;5.87;3.73;;;;;;;10.95;96.30;64094.34;5049915;28;20192;-57
2023/05/07 01:48:24;;;;;;;4.83;4.13;;;;;;;11.03;97.07;64105.09;5049927;28;20244;-59
2023/05/07 01:50:51;;;;;;;4.53;4.10;;;;;;;10.93;98.02;64092.72;5049732;28;20259;-58
2023/05/07 01:53:16;;;;;;;8.27;4.70;;;;;;;10.94;99.01;64095.78;5049947;28;20243;-55
2023/05/07 01:55:41;;;;;;;6.53;4.90;;;;;;;10.94;99.80;64095.78;5049873;28;20627;-57
2023/05/07 01:58:07;;;;;;;6.80;5.30;;;;;;;10.91;100.00;64092.50;5049597;28;20274;-58
2023/05/07 02:00:32;;;;;;;7.23;5.40;;;;;;;10.92;100.00;64091.06;5049718;28;20599;-57
2023/05/07 02:02:58;;;;;;;10.23;5.47;;;;;;;11.01;100.00;64100.91;5049739;28;20677;-58
2023/05/07 02:05:24;;;;;;;6.70;4.93;;;;;;;11.06;99.66;64108.94;5034640;28;20189;-58
2023/05/07 02:07:49;;;;;;;6.27;5.00;;;;;;;10.92;100.00;64091.06;5052860;28;20281;-58
2023/05/07 02:10:14;;;;;;;6.97;5.30;;;;;;;11.01;100.00;64100.91;5053087;28;20358;-54
2023/05/07 02:12:40;;;;;;;6.60;5.40;;;;;;;10.98;100.00;64100.72;5052975;28;20186;-56
2023/05/07 02:15:12;;;;;;;8.03;5.60;;;;;;;10.96;100.00;64096.00;5053145;28;20508;-54
2023/05/07 02:18:02;;;;;;;7.73;5.40;;;;;;;10.99;100.00;64101.25;5052876;28;20235;-58
2023/05/07 02:20:27;;;;;;;7.87;5.70;;;;;;;11.05;100.00;64107.28;5062300;23;20221;-56
2023/05/07 02:22:53;;;;;;;6.37;5.73;;;;;;;10.98;100.00;64098.19;5070840;28;20192;-58
2023/05/07 02:25:18;;;;;;;6.40;5.57;;;;;;;10.96;100.00;64096.00;5052790;28;20203;-54
2023/05/07 02:27:44;;;;;;;9.73;5.33;;;;;;;10.85;100.00;64083.94;5052672;28;20192;-58
2023/05/07 02:30:10;;;;;;;6.97;5.37;;;;;;;10.93;100.00;64092.16;5052719;28;20600;-57
2023/05/07 02:32:35;;;;;;;6.17;5.57;;;;;;;10.98;100.00;64100.16;5052769;28;20182;-58
2023/05/07 02:35:00;;;;;;;8.60;6.03;;;;;;;10.99;100.00;64101.81;5052721;28;20536;-55
2023/05/07 02:37:26;;;;;;;7.87;5.60;;;;;;;10.91;100.00;64095.56;5052579;28;20177;-56
2023/05/07 02:39:51;;;;;;;7.17;6.20;;;;;;;10.85;100.00;64086.47;5034776;28;20632;-58
2023/05/07 02:42:17;;;;;;;7.37;5.43;;;;;;;10.85;100.00;64085.91;5052764;28;20190;-57
2023/05/07 02:44:42;;;;;;;10.27;6.30;;;;;;;10.77;100.00;64077.16;5052377;28;20252;-54
2023/05/07 02:47:09;;;;;;;6.50;5.90;;;;;;;10.77;100.00;64075.19;5052495;28;20190;-57
2023/05/07 02:49:34;;;;;;;6.87;5.70;;;;;;;10.90;100.00;64091.97;5034517;28;20232;-57
2023/05/07 02:52:00;;;;;;;7.50;5.77;;;;;;;10.95;100.00;64094.91;5052408;28;20178;-58
2023/05/07 02:54:25;;;;;;;9.07;6.63;;;;;;;10.92;100.00;64093.59;5034593;28;20213;-55
2023/05/07 02:56:51;;;;;;;8.80;6.03;;;;;;;10.90;100.00;64091.97;5052258;28;20237;-57
2023/05/07 02:59:16;;;;;;;7.67;5.97;;;;;;;10.91;100.00;64093.03;5052597;28;20217;-56
2023/05/07 03:01:43;;;;;;;8.43;5.93;;;;;;;10.78;100.00;64081.34;5052546;28;20533;-56
2023/05/07 03:04:10;;;;;;;8.87;6.90;;;;;;;10.81;100.00;64081.53;5052226;28;20215;-54
2023/05/07 03:06:35;;;;;;;9.20;6.77;;;;;;;10.81;100.00;64079.56;5052293;28;20292;-55
2023/05/07 03:09:01;;;;;;;7.37;6.43;;;;;;;10.73;100.00;64072.78;5052000;28;20230;-57
2023/05/07 03:11:26;;;;;;;10.90;6.27;;;;;;;10.50;100.00;64045.66;5052328;28;20190;-55
2023/05/07 03:13:52;;;;;;;7.67;6.77;;;;;;;10.87;100.00;64088.13;5051889;28;20212;-56
2023/05/07 03:16:17;;;;;;;11.90;6.80;;;;;;;10.85;100.00;64080.88;5051489;28;20187;-58
2023/05/07 03:18:43;;;;;;;9.07;6.90;;;;;;;10.83;100.00;64081.22;5052102;28;20214;-59
2023/05/07 03:21:08;;;;;;;9.93;7.67;;;;;;;10.97;100.00;64099.63;5051980;28;20192;-57
2023/05/07 03:23:34;;;;;;;14.17;8.07;;;;;;;10.95;100.00;64094.91;5052087;28;20258;-57
2023/05/07 03:25:59;;;;;;;11.80;7.70;;;;;;;10.93;100.00;64094.69;5051769;28;20620;-57
2023/05/07 03:28:24;;;;;;;10.13;7.30;;;;;;;11.08;100.00;64110.56;5051862;28;20217;-56
2023/05/07 03:30:50;;;;;;;13.37;8.53;;;;;;;11.13;100.00;64116.06;5033875;28;21173;-56
2023/05/07 03:33:16;;;;;;;10.30;7.37;;;;;;;11.04;100.00;64106.75;5051782;28;20229;-55
2023/05/07 03:35:41;;;;;;;11.03;8.70;;;;;;;10.89;100.00;64093.38;5051967;28;20197;-56
2023/05/07 03:38:07;;;;;;;12.37;8.67;;;;;;;11.00;100.00;64099.84;5033731;28;20206;-57
2023/05/07 03:40:32;;;;;;;12.67;8.70;;;;;;;11.20;100.00;64123.72;5051915;28;20201;-56
2023/05/07 03:42:59;;;;;;;11.67;8.70;;;;;;;11.31;100.00;64136.28;5051545;28;21605;-58
2023/05/07 03:45:25;;;;;;;12.03;8.57;;;;;;;11.32;100.00;64137.41;5051521;28;20232;-57
2023/05/07 03:47:51;;;;;;;12.97;9.80;;;;;;;11.18;100.00;64119.53;5051524;28;20679;-62
2023/05/07 03:50:16;;;;;;;11.83;9.77;;;;;;;11.26;100.00;64130.84;5051574;28;20678;-55
2023/05/07 03:52:41;;;;;;;17.27;9.20;;;;;;;11.37;100.00;64142.88;5051358;28;20193;-55
2023/05/07 03:55:07;;;;;;;11.50;8.57;;;;;;;11.39;100.00;64142.00;5051436;28;20201;-57
2023/05/07 03:57:33;;;;;;;11.53;8.83;;;;;;;11.52;100.00;64159.31;5051209;28;20197;-56
2023/05/07 03:59:58;;;;;;;11.13;8.67;;;;;;;11.74;100.00;64182.88;5051659;28;20633;-56
2023/05/07 04:02:23;;;;;;;11.17;8.67;;;;;;;11.73;100.00;64179.28;5051458;28;20197;-54
2023/05/07 04:04:49;;;;;;;12.80;9.00;;;;;;;11.57;100.00;64164.78;5051579;28;20534;-57
2023/05/07 04:07:15;;;;;;;13.67;9.00;;;;;;;11.70;100.00;64178.50;5051212;28;20259;-55
2023/05/07 04:09:40;;;;;;;12.23;9.27;;;;;;;11.78;100.00;64187.28;5051471;28;20224;-58
2023/05/07 04:12:05;;;;;;;11.33;8.50;;;;;;;11.74;100.00;64180.91;5051389;28;20193;-58
2023/05/07 04:14:32;;;;;;;14.47;9.10;;;;;;;11.67;100.00;64172.69;5051234;28;20683;-58
2023/05/07 04:17:00;;;;;;;13.23;9.50;;;;;;;11.57;100.00;64161.72;5050996;28;20204;-57
2023/05/07 04:19:26;;;;;;;11.37;9.43;;;;;;;11.48;100.00;64154.94;5051064;28;20274;-61
2023/05/07 04:21:51;;;;;;;13.47;9.40;;;;;;;11.64;100.00;64169.94;5051198;28;20197;-55
2023/05/07 04:24:17;;;;;;;13.37;9.10;;;;;;;11.82;100.00;64191.13;5051345;28;20220;-55
2023/05/07 04:26:42;;;;;;;12.43;9.23;;;;;;;11.87;100.00;64197.16;5051007;28;20185;-55
2023/05/07 04:29:08;;;;;;;13.17;9.33;;;;;;;11.72;100.00;64181.25;5050898;28;20224;-55
2023/05/07 04:31:33;;;;;;;13.80;9.47;;;;;;;11.53;100.00;64160.41;5051013;28;20670;-55
2023/05/07 04:33:58;;;;;;;12.83;9.70;;;;;;;11.56;100.00;64163.69;5050957;28;20206;-58
2023/05/07 04:36:27;;;;;;;11.37;8.97;;;;;;;11.61;100.00;64166.66;5050904;28;20181;-57
2023/05/07 04:38:53;;;;;;;13.73;9.03;;;;;;;11.65;100.00;64171.03;5050673;28;20221;-57
2023/05/07 04:41:18;;;;;;;11.80;9.37;;;;;;;11.84;100.00;64190.78;5050752;28;20185;-58
2023/05/07 04:43:44;;;;;;;11.83;8.87;;;;;;;11.86;100.00;64193.50;5050882;28;20296;-58
2023/05/07 04:46:09;;;;;;;16.17;9.07;;;;;;;11.95;100.00;64205.34;5050905;28;20277;-59
2023/05/07 04:48:35;;;;;;;13.10;8.70;;;;;;;12.02;100.00;64213.03;5050695;28;20225;-56
2023/05/07 04:51:00;;;;;;;14.60;9.23;;;;;;;12.16;100.00;64223.88;5050651;28;20209;-55
2023/05/07 04:53:26;;;;;;;13.40;8.53;;;;;;;12.30;99.71;64241.22;5050619;28;20584;-57
2023/05/07 04:55:57;;;;;;;13.90;9.33;;;;;;;12.43;98.40;64255.47;5050777;28;20189;-58
2023/05/07 04:58:23;;;;;;;14.27;10.43;;;;;;;12.38;99.91;64253.03;5050400;28;20687;-59
2023/05/07 05:00:49;;;;;;;13.05;9.70;;;;;;;12.44;100.00;64259.09;5050501;28;20368;-56
2023/05/07 05:03:15;;;;;;;12.60;9.63;;;;;;;12.51;99.87;64264.22;5050282;28;20296;-58
2023/05/07 05:05:40;;;;;;;13.33;10.30;;;;;;;12.26;100.00;64236.81;5050389;28;20189;-58
2023/05/07 05:08:06;;;;;;;16.20;11.90;;;;;;;12.36;100.00;64250.31;5050301;28;20274;-60
2023/05/07 05:10:31;;;;;;;20.77;12.63;;;;;;;12.47;100.00;64260.41;5050432;28;20236;-57
2023/05/07 05:12:57;;;;;;;15.98;11.90;;;;;;;12.43;100.00;64255.47;5050396;28;20276;-59
2023/05/07 05:15:22;;;;;;;16.43;11.50;;;;;;;12.53;100.00;64266.97;5050543;28;20324;-58
2023/05/07 05:17:48;;;;;;;13.53;9.77;;;;;;;12.74;98.96;64291.44;5050181;28;20251;-57
2023/05/07 05:20:14;;;;;;;15.37;10.20;;;;;;;12.73;98.95;64288.34;5050225;28;20278;-57
2023/05/07 05:22:39;;;;;;;14.48;10.00;;;;;;;12.83;99.24;64296.81;5050100;28;20244;-55
2023/05/07 05:25:05;;;;;;;12.50;9.40;;;;;;;12.72;99.56;64289.81;5049028;28;20584;-56
2023/05/07 05:27:30;;;;;;;16.63;10.10;;;;;;;12.73;99.10;64290.88;5050049;28;20189;-56
2023/05/07 05:29:55;;;;;;;14.27;9.93;;;;;;;12.83;98.37;64299.31;5050238;28;20249;-56
2023/05/07 05:32:21;;;;;;;14.13;10.37;;;;;;;12.81;98.44;64297.13;5032069;28;20277;-56
2023/05/07 05:34:47;;;;;;;13.02;9.95;;;;;;;12.97;98.31;64316.69;5050248;28;20217;-55
2023/05/07 05:37:13;;;;;;;15.27;9.83;;;;;;;13.04;98.09;64321.84;5050025;28;20196;-55
2023/05/07 05:39:38;;;;;;;10.90;8.63;;;;;;;13.10;98.10;64328.97;5033561;28;20214;-54
2023/05/07 05:42:03;;;;;;;12.07;9.02;;;;;;;13.24;98.17;64346.31;5035644;28;20272;-55
2023/05/07 05:44:29;;;;;;;15.18;9.90;;;;;;;13.15;99.50;64337.00;5053607;28;20217;-59
2023/05/07 05:46:55;;;;;;;9.83;8.60;;;;;;;13.14;100.00;64332.81;5053399;28;20631;-56
2023/05/07 05:49:21;;;;;;;12.60;9.73;;;;;;;13.14;100.00;64333.38;5053409;28;20221;-56
2023/05/07 05:51:47;;;;;;;10.57;8.43;;;;;;;13.14;100.00;64333.38;5053354;28;20194;-58
2023/05/07 05:54:13;;;;;;;13.13;10.13;;;;;;;13.05;100.00;64320.97;5053620;28;20278;-56
2023/05/07 05:56:38;;;;;;;12.60;9.27;;;;;;;13.12;99.70;64331.19;5053488;28;20645;-55
2023/05/07 05:59:03;;;;;;;13.10;10.10;;;;;;;13.09;99.03;64324.81;5053517;28;20213;-55
2023/05/07 06:01:29;;;;;;;14.00;9.37;;;;;;;13.41;97.58;64360.47;5053615;28;20712;-56
2023/05/07 06:03:54;;;;;;;15.23;9.57;;;;;;;13.40;97.30;64361.91;5053595;28;20283;-57
2023/05/07 06:06:20;;;;;;;12.40;8.85;;;;;;;13.36;98.34;64357.53;5053572;28;20209;-59
2023/05/07 06:08:45;;;;;;;19.80;10.20;;;;;;;13.56;97.63;64378.91;5053233;28;20282;-61
2023/05/07 06:11:11;;;;;;;11.43;9.00;;;;;;;13.69;96.96;64392.66;5053238;28;20220;-58
2023/05/07 06:13:36;;;;;;;15.63;9.85;;;;;;;13.68;96.55;64392.09;5053199;28;20717;-55
2023/05/07 06:16:02;;;;;;;12.02;8.55;;;;;;;13.71;96.39;64395.41;5053058;28;20593;-55
2023/05/07 06:18:27;;;;;;;12.43;9.55;;;;;;;13.85;96.14;64413.31;5052950;28;20233;-58
2023/05/07 06:20:53;;;;;;;12.10;9.05;;;;;;;14.16;93.99;64441.72;5053069;28;20586;-59
2023/05/07 06:23:19;;;;;;;14.10;9.57;;;;;;;14.22;93.31;64450.84;5052873;28;20217;-59
2023/05/07 06:25:50;;;;;;;11.75;8.68;;;;;;;14.23;93.83;64451.94;5052967;28;20197;-58
2023/05/07 06:28:15;;;;;;;15.27;11.40;;;;;;;14.18;92.85;64447.00;5053003;28;20213;-58
2023/05/07 06:30:41;;;;;;;14.35;9.20;;;;;;;14.37;91.37;64469.88;5052518;28;20255;-60
2023/05/07 06:33:06;;;;;;;11.68;8.45;;;;;;;14.43;89.90;64476.47;5052580;28;20202;-56
2023/05/07 06:35:32;;;;;;;11.02;8.30;;;;;;;14.48;90.52;64478.91;5052963;28;20193;-59
2023/05/07 06:37:57;;;;;;;12.90;8.93;;;;;;;14.66;89.11;64496.13;5052745;28;20248;-58
2023/05/07 06:40:23;;;;;;;12.23;9.45;;;;;;;14.63;91.42;64495.38;5053052;28;20181;-57
2023/05/07 06:42:48;;;;;;;10.93;8.70;;;;;;;14.86;89.14;64520.66;5052718;28;20587;-59
2023/05/07 06:45:13;;;;;;;11.38;8.48;;;;;;;14.87;88.99;64522.28;5052717;28;20213;-58
2023/05/07 06:47:39;;;;;;;12.10;8.25;;;;;;;15.13;85.17;64548.34;5052626;28;20181;-57
2023/05/07 06:50:05;;;;;;;10.32;8.02;;;;;;;15.15;85.04;64550.53;5052044;28;20213;-56
2023/05/07 06:52:31;;;;;;;11.63;8.23;;;;;;;15.29;84.42;64564.84;5052002;28;20185;-57
2023/05/07 06:54:56;;;;;;;13.35;8.05;;;;;;;15.37;84.20;64573.66;5052404;28;20213;-58
2023/05/07 06:57:21;;;;;;;9.95;7.75;;;;;;;15.47;85.28;64585.22;5052412;28;20177;-55
2023/05/07 06:59:47;;;;;;;12.13;8.15;;;;;;;15.64;81.90;64603.34;5034305;28;20278;-58
2023/05/07 07:02:13;;;;;;;11.90;8.73;;;;;;;15.76;81.54;64616.53;5052345;28;20193;-58
2023/05/07 07:04:38;;;;;;;10.48;8.57;;;;;;;15.86;81.75;64630.66;5052549;28;20220;-59
2023/05/07 07:07:03;;;;;;;11.50;8.43;;;;;;;15.90;82.12;64637.03;5052418;28;20200;-59
2023/05/07 07:09:29;;;;;;;12.00;8.40;;;;;;;15.88;83.13;64629.75;5052307;28;20216;-59
2023/05/07 07:11:54;;;;;;;13.00;8.32;;;;;;;15.98;81.96;64643.28;5052549;28;20189;-59
2023/05/07 07:14:20;;;;;;;11.15;8.80;;;;;;;16.21;82.41;64668.06;5051954;28;20213;-59
2023/05/07 07:16:46;;;;;;;18.90;9.20;;;;;;;16.16;80.80;64662.56;5052133;28;20197;-59
2023/05/07 07:19:20;;;;;;;12.95;8.65;;;;;;;16.13;79.75;64657.28;5052012;28;20205;-60
2023/05/07 07:21:45;;;;;;;11.25;7.10;;;;;;;16.18;78.73;64664.78;5034646;28;20208;-59
2023/05/07 07:24:11;;;;;;;8.32;7.40;;;;;;;16.25;76.74;64670.47;5052253;28;20671;-58
2023/05/07 07:26:36;;;;;;;9.75;7.45;;;;;;;16.12;76.72;64658.69;5052285;28;20251;-57
2023/05/07 07:29:02;;;;;;;10.52;8.25;;;;;;;16.12;75.56;64656.16;5051976;28;20209;-56
2023/05/07 07:31:28;;;;;;;11.30;8.25;;;;;;;16.25;76.47;64670.47;5051867;28;20545;-56
2023/05/07 07:33:53;;;;;;;13.02;7.85;;;;;;;16.49;75.51;64696.34;5052077;28;20210;-56
2023/05/07 07:36:18;;;;;;;9.38;7.65;;;;;;;16.62;74.90;64713.75;5051780;28;20181;-59
2023/05/07 07:38:44;;;;;;;12.25;8.80;;;;;;;16.72;75.38;64722.22;5051974;28;20216;-56
2023/05/07 07:41:09;;;;;;;11.15;8.00;;;;;;;16.83;73.78;64736.34;5051658;28;20185;-57
2023/05/07 07:43:35;;;;;;;13.05;9.07;;;;;;;17.14;72.96;64767.41;5051567;28;20225;-57
2023/05/07 07:46:01;;;;;;;12.13;7.00;;;;;;;17.26;71.04;64780.63;5051692;28;20285;-59
2023/05/07 07:48:26;;;;;;;10.50;8.40;;;;;;;17.63;70.85;64823.41;5051728;28;20206;-59
2023/05/07 07:50:51;;;;;;;14.57;7.78;;;;;;;17.83;70.67;64846.00;5033767;28;20205;-55
2023/05/07 07:53:17;;;;;;;12.00;7.68;;;;;;;18.14;69.50;64877.63;5051589;28;20730;-57
2023/05/07 07:55:43;;;;;;;11.30;7.90;;;;;;;18.24;68.62;64888.13;5051550;28;20197;-56
2023/05/07 07:58:08;;;;;;;11.10;6.97;;;;;;;18.40;67.15;64906.28;5051642;28;20595;-57
2023/05/07 08:00:34;;;;;;;13.18;7.57;;;;;;;18.17;68.39;64882.94;5051468;28;20228;-62
2023/05/07 08:03:00;;;;;;;11.57;6.72;;;;;;;18.23;67.68;64887.56;5051025;28;20213;-57
2023/05/07 08:05:25;;;;;;;9.48;7.13;;;;;;;18.32;67.13;64897.47;5051303;28;20181;-58
2023/05/07 08:07:52;;;;;;;10.70;6.97;;;;;;;18.48;65.98;64914.06;5051505;28;20196;-57
2023/05/07 08:10:21;;;;;;;8.80;6.63;;;;;;;18.78;65.40;64947.16;5051293;28;20213;-57
2023/05/07 08:12:50;;;;;;;10.60;8.05;;;;;;;19.05;65.90;64976.94;5051080;28;20197;-55
2023/05/07 08:15:16;;;;;;;12.65;8.38;;;;;;;19.24;62.23;64997.91;5033236;28;20255;-56
2023/05/07 08:17:41;;;;;;;11.95;8.32;;;;;;;19.05;63.35;64977.47;5032955;28;20600;-56
2023/05/07 08:20:07;;;;;;;10.60;7.38;;;;;;;19.16;65.43;64991.63;5051276;28;20185;-56
2023/05/07 08:22:34;;;;;;;9.13;7.13;;;;;;;19.24;67.03;64997.91;5051056;28;20190;-56
2023/05/07 08:25:00;;;;;;;9.00;7.53;;;;;;;19.21;65.97;64999.69;5050979;28;20222;-56
2023/05/07 08:27:25;;;;;;;11.52;7.65;;;;;;;19.24;62.94;64995.91;5051009;28;20731;-60
2023/05/07 08:29:51;;;;;;;9.70;7.80;;;;;;;19.36;62.61;65010.63;5050740;28;20221;-58
2023/05/07 08:32:16;;;;;;;11.50;7.72;;;;;;;19.34;62.58;65008.97;5050959;28;20225;-60
2023/05/07 08:34:41;;;;;;;9.70;7.88;;;;;;;19.72;64.11;65052.91;5051283;28;20229;-58
2023/05/07 08:37:07;;;;;;;9.95;7.25;;;;;;;19.66;60.16;65041.19;5050890;28;20189;-59
2023/05/07 08:39:32;;;;;;;10.15;7.50;;;;;;;19.51;61.75;65027.75;5050766;28;20626;-60
2023/05/07 08:42:00;;;;;;;8.65;7.47;;;;;;;19.36;60.31;65013.16;5050756;28;20616;-57
2023/05/07 08:44:29;;;;;;;10.07;7.15;;;;;;;19.81;57.51;65060.31;5050424;28;20221;-56
2023/05/07 08:46:57;;;;;;;9.43;6.65;;;;;;;19.73;56.53;65051.47;5050727;28;20193;-57
2023/05/07 08:49:23;;;;;;;8.85;5.68;;;;;;;20.39;55.06;65124.41;5050533;28;20264;-60
2023/05/07 08:51:48;;;;;;;6.43;5.47;;;;;;;20.39;51.73;65124.41;5050774;28;20262;-59
2023/05/07 08:54:16;;;;;;;6.40;5.47;;;;;;;20.55;52.69;65142.09;5050449;28;20308;-59
2023/05/07 08:56:42;;;;;;;8.63;5.90;;;;;;;20.16;52.49;65098.41;5050617;28;20622;-58
2023/05/07 08:59:07;;;;;;;6.93;5.30;;;;;;;20.05;54.17;65087.38;5050830;28;20213;-58
2023/05/07 09:01:35;;;;;;;8.13;6.13;;;;;;;20.60;52.29;65147.63;5050506;28;20636;-58
2023/05/07 09:04:00;;;;;;;5.72;4.13;;;;;;;20.30;48.17;65114.44;5050860;28;20217;-58
2023/05/07 09:06:26;;;;;;;5.03;4.45;;;;;;;20.37;49.55;65122.19;5032679;28;20220;-57
2023/05/07 09:08:53;;;;;;;6.35;4.80;;;;;;;20.14;50.04;65096.22;5050693;28;20302;-57
2023/05/07 09:11:23;;;;;;;7.13;4.85;;;;;;;20.47;50.01;65132.69;5050601;28;20217;-58
2023/05/07 09:13:53;;;;;;;4.78;3.72;;;;;;;21.14;48.51;65206.78;5050749;28;20266;-58
2023/05/07 09:16:20;;;;;;;5.57;3.65;;;;;;;21.66;48.21;65264.28;5036337;28;20229;-59
2023/05/07 09:18:47;;;;;;;7.55;4.32;;;;;;;21.89;47.90;65286.06;5054275;28;20690;-58
2023/05/07 09:21:17;;;;;;;6.82;3.90;;;;;;;22.20;48.40;65322.97;5035996;28;20203;-58
2023/05/07 09:23:42;;;;;;;6.97;4.43;;;;;;;22.08;48.59;65309.69;5053907;28;20217;-58
2023/05/07 09:26:11;;;;;;;5.60;5.00;;;;;;;22.40;47.82;65345.09;5053809;28;20720;-58
2023/05/07 09:28:43;;;;;;;6.32;5.38;;;;;;;22.10;46.99;65311.88;5036680;28;20240;-59
2023/05/07 09:31:10;;;;;;;8.07;5.10;;;;;;;22.17;44.14;65317.06;5053555;28;20210;-60
2023/05/07 09:33:35;;;;;;;8.73;4.25;;;;;;;22.82;44.39;65391.06;5053497;28;20236;-57
2023/05/07 09:36:09;;;;;;;8.68;4.40;;;;;;;23.25;43.04;65439.22;5053795;28;20193;-57
2023/05/07 09:38:36;;;;;;;6.13;4.68;;;;;;;23.75;43.60;65493.56;5053619;28;20217;-56
2023/05/07 09:41:07;;;;;;;5.40;3.92;;;;;;;23.37;41.16;65452.00;5052514;28;20217;-57
2023/05/07 09:43:37;;;;;;;7.63;4.43;;;;;;;23.85;41.21;65502.06;5053801;28;20561;-60
2023/05/07 09:46:06;;;;;;;10.55;4.47;;;;;;;23.82;40.67;65499.28;5053516;28;20189;-59
2023/05/07 09:48:37;;;;;;;6.57;5.95;;;;;;;23.68;39.97;65485.78;5036068;28;20316;-59
2023/05/07 09:51:08;;;;;;;6.88;3.63;;;;;;;23.88;40.17;65507.97;5053220;28;20636;-60
2023/05/07 09:53:34;;;;;;;5.32;3.97;;;;;;;24.24;39.36;65544.78;5053562;28;20225;-59
2023/05/07 09:56:02;;;;;;;8.98;4.00;;;;;;;23.95;39.69;65518.31;5053358;28;20198;-59
2023/05/07 09:58:28;;;;;;;4.55;3.70;;;;;;;24.26;40.24;65549.56;5053319;28;20255;-56
2023/05/07 10:00:55;;;;;;;4.95;4.20;;;;;;;24.26;40.31;65547.53;5053488;28;20197;-56
2023/05/07 10:03:22;;;;;;;5.00;4.28;;;;;;;24.25;40.40;65549.00;5053370;28;20578;-56
2023/05/07 10:05:49;;;;;;;4.97;4.00;;;;;;;24.23;40.27;65546.78;5035335;28;20587;-58
2023/05/07 10:08:16;;;;;;;6.82;4.75;;;;;;;24.62;39.45;65590.06;5053168;28;20233;-58
2023/05/07 10:10:42;;;;;;;5.82;4.10;;;;;;;24.99;39.14;65627.97;5053167;28;20218;-56
2023/05/07 10:13:10;;;;;;;6.05;3.90;;;;;;;25.22;39.67;65655.53;5053220;28;20205;-55
2023/05/07 10:15:36;;;;;;;6.20;4.65;;;;;;;25.30;38.66;65664.41;5052923;28;20213;-55
2023/05/07 10:18:03;;;;;;;6.07;4.90;;;;;;;25.62;37.88;65699.94;5052918;28;20221;-58
2023/05/07 10:20:29;;;;;;;3.45;3.15;;;;;;;25.48;35.43;65681.81;5053009;28;20174;-56
2023/05/07 10:22:57;;;;;;;4.07;3.38;;;;;;;24.56;36.51;65580.81;5053203;28;20210;-59
2023/05/07 10:25:29;;;;;;;5.47;2.85;;;;;;;24.26;36.43;65550.09;5052731;28;20280;-60
2023/05/07 10:27:59;;;;;;;4.63;3.05;;;;;;;24.42;36.49;65567.31;5053206;28;20210;-58
2023/05/07 10:31:04;;;;;;;5.15;3.63;;;;;;;24.00;36.50;65521.25;5053023;28;20221;-57
2023/05/07 10:33:32;;;;;;;5.35;3.63;;;;;;;24.06;37.13;65525.34;5052987;28;20686;-60
2023/05/07 10:36:01;;;;;;;7.35;4.00;;;;;;;24.83;36.26;65610.22;5052593;28;20372;-57
2023/05/07 10:38:27;;;;;;;3.83;3.13;;;;;;;25.13;34.90;65643.50;5052843;28;20342;-55
2023/05/07 10:40:53;;;;;;;6.60;4.53;;;;;;;24.77;34.55;65603.56;5052565;28;20248;-57
2023/05/07 10:43:19;;;;;;;4.10;3.63;;;;;;;24.53;35.68;65579.50;5052885;28;20206;-58
2023/05/07 10:46:16;;;;;;;8.40;3.65;;;;;;;24.47;35.11;65570.28;5052907;28;20695;-59
2023/05/07 10:49:00;;;;;;;5.07;3.60;;;;;;;24.95;35.16;65626.66;5052949;28;20213;-58
2023/05/07 10:51:26;;;;;;;5.20;3.40;;;;;;;25.57;33.98;65694.41;5052620;28;20302;-58
2023/05/07 10:54:15;;;;;;;5.78;3.20;;;;;;;24.42;34.21;65567.84;5052615;28;20237;-58
2023/05/07 10:56:44;;;;;;;5.38;3.08;;;;;;;24.97;34.25;65628.88;5042185;28;20216;-59
2023/05/07 10:59:23;;;;;;;4.28;3.65;;;;;;;24.74;33.51;65602.81;5052327;28;20316;-59
2023/05/07 11:01:55;;;;;;;5.32;3.90;;;;;;;24.30;33.75;65551.44;5052577;28;20623;-58
2023/05/07 11:04:26;;;;;;;4.10;3.70;;;;;;;24.42;33.88;65565.28;5052145;28;20217;-58
2023/05/07 11:07:06;;;;;;;4.38;3.95;;;;;;;24.87;33.28;65617.78;5052417;28;20189;-56
2023/05/07 11:09:55;;;;;;;6.05;3.70;;;;;;;25.06;33.12;65632.59;5052599;28;20217;-55
2023/05/07 11:12:36;;;;;;;3.85;3.40;;;;;;;25.53;33.47;65687.91;5052406;28;20239;-56
2023/05/07 11:15:06;;;;;;;4.68;2.95;;;;;;;25.26;34.10;65660.53;5052379;28;20229;-57
2023/05/07 11:17:34;;;;;;;3.85;3.45;;;;;;;25.42;34.14;65677.75;5052338;28;20242;-58
2023/05/07 11:20:01;;;;;;;4.25;3.17;;;;;;;25.88;35.17;65725.69;5052270;28;20292;-56
2023/05/07 11:22:36;;;;;;;4.07;3.33;;;;;;;26.50;33.51;65795.09;5052229;28;20196;-60
2023/05/07 11:25:06;;;;;;;6.78;3.17;;;;;;;26.38;32.55;65781.78;5052110;28;20213;-59